Time;durP1;ratioP1;P1;durP2;ratioP2;P2;SDS_P1;SDS_P2;PMS_P1;PMS_P2;Temp;Humidity;BMP_temperature;BMP_pressure;BME280_temperature;BME280_humidity;BME280_pressure;Samples;Min_cycle;Max_cycle;Signal;HPM_P1;HPM_P2
2023/04/05 00:02:09;;;;;;;0.60;0.60;;;;;;;4.78;92.98;99416.50;4933172;29;20055;-82
2023/04/05 00:04:37;;;;;;;0.60;0.60;;;;;;;4.84;92.87;99408.69;4933412;29;20055;-83
2023/04/05 00:07:08;;;;;;;0.60;0.60;;;;;;;4.86;92.75;99411.97;4933659;29;20114;-84
2023/04/05 00:09:35;;;;;;;0.60;0.60;;;;;;;4.94;92.82;99414.50;4933198;29;20410;-85
2023/04/05 00:12:02;;;;;;;0.70;0.70;;;;;;;4.96;92.84;99412.44;4933376;29;20058;-85
2023/04/05 00:14:48;;;;;;;0.65;0.65;;;;;;;4.97;92.59;99409.59;4919103;29;20066;-84
2023/04/05 00:17:16;;;;;;;0.60;0.60;;;;;;;4.94;92.61;99412.66;4933334;29;20059;-84
2023/04/05 00:20:06;;;;;;;0.60;0.60;;;;;;;4.98;92.83;99405.88;4916524;29;20051;-84
2023/04/05 00:22:52;;;;;;;0.60;0.60;;;;;;;4.97;92.68;99404.22;4936152;29;20142;-84
2023/04/05 00:25:20;;;;;;;0.70;0.70;;;;;;;4.94;92.83;99406.50;4942038;29;20058;-83
2023/04/05 00:27:47;;;;;;;0.70;0.70;;;;;;;4.96;92.88;99405.25;4933455;29;20047;-83
2023/04/05 00:30:20;;;;;;;0.70;0.70;;;;;;;4.93;92.91;99402.16;4933474;29;20443;-84
2023/04/05 00:32:48;;;;;;;0.60;0.60;;;;;;;4.93;93.03;99396.78;4933236;29;20083;-84
2023/04/05 00:35:16;;;;;;;0.70;0.70;;;;;;;4.93;92.91;99399.47;4931751;29;20427;-84
2023/04/05 00:37:43;;;;;;;0.60;0.60;;;;;;;4.88;93.23;99407.25;4900395;29;20493;-84
2023/04/05 00:40:10;;;;;;;0.70;0.70;;;;;;;4.87;93.23;99402.94;4932685;29;20048;-84
2023/04/05 00:42:38;;;;;;;0.70;0.70;;;;;;;4.88;93.41;99415.28;4933061;29;20070;-83
2023/04/05 00:45:07;;;;;;;0.70;0.70;;;;;;;4.86;93.76;99415.50;4915778;29;20056;-82
2023/04/05 00:47:35;;;;;;;0.70;0.70;;;;;;;4.87;94.12;99417.13;4934362;29;20043;-84
2023/04/05 00:50:02;;;;;;;0.60;0.60;;;;;;;4.88;94.10;99421.44;4919805;29;20047;-83
2023/04/05 00:52:31;;;;;;;0.60;0.60;;;;;;;4.89;93.99;99414.28;4919524;29;20075;-84
2023/04/05 00:54:58;;;;;;;0.70;0.70;;;;;;;4.85;94.11;99413.00;4920086;29;20095;-84
2023/04/05 00:57:25;;;;;;;0.60;0.60;;;;;;;4.84;93.83;99416.72;4919590;29;20086;-84
2023/04/05 00:59:52;;;;;;;0.60;0.60;;;;;;;4.81;94.18;99422.44;4936628;29;20091;-83
2023/04/05 01:02:38;;;;;;;0.60;0.60;;;;;;;4.80;94.64;99418.13;4933384;29;20537;-83
2023/04/05 01:05:18;;;;;;;0.70;0.70;;;;;;;4.80;94.34;99426.16;4919405;29;20060;-83
2023/04/05 01:07:50;;;;;;;0.60;0.60;;;;;;;4.69;94.75;99417.66;4919533;29;20071;-82
2023/04/05 01:10:21;;;;;;;0.65;0.65;;;;;;;4.67;94.82;99433.06;4919345;29;20078;-83
2023/04/05 01:12:48;;;;;;;0.70;0.70;;;;;;;4.62;95.11;99430.16;4935660;23;20061;-83
2023/04/05 01:15:17;;;;;;;0.70;0.70;;;;;;;4.61;95.24;99431.19;4922562;29;20047;-83
2023/04/05 01:17:45;;;;;;;0.70;0.70;;;;;;;4.58;95.36;99428.88;4956237;29;20051;-80
2023/04/05 01:20:14;;;;;;;0.70;0.70;;;;;;;4.64;95.74;99416.59;4939432;29;20067;-82
2023/04/05 01:22:53;;;;;;;0.60;0.60;;;;;;;4.71;95.57;99425.47;4938594;29;20055;-82
2023/04/05 01:25:51;;;;;;;0.60;0.60;;;;;;;4.70;95.48;99421.16;4937785;29;20106;-83
2023/04/05 01:28:34;;;;;;;0.60;0.60;;;;;;;4.64;95.72;99428.13;4954939;29;20062;-83
2023/04/05 01:31:16;;;;;;;0.70;0.70;;;;;;;4.61;95.79;99428.50;4955118;29;20047;-83
2023/04/05 01:33:47;;;;;;;0.60;0.60;;;;;;;4.56;96.05;99422.94;4955098;29;20055;-83
2023/04/05 01:36:41;;;;;;;0.60;0.60;;;;;;;4.55;96.29;99429.28;4954757;29;20079;-82
2023/04/05 01:39:11;;;;;;;0.60;0.60;;;;;;;4.48;96.37;99429.25;4922031;29;20058;-81
2023/04/05 01:41:39;;;;;;;0.70;0.70;;;;;;;4.47;96.63;99430.25;4955069;29;20055;-83
2023/04/05 01:44:09;;;;;;;0.60;0.60;;;;;;;4.41;96.70;99425.69;4938326;29;20150;-82
2023/04/05 01:46:36;;;;;;;0.60;0.60;;;;;;;4.40;96.93;99423.19;4954935;29;20588;-83
2023/04/05 01:49:05;;;;;;;0.70;0.70;;;;;;;4.41;97.22;99420.34;4937647;29;20058;-83
2023/04/05 01:51:32;;;;;;;0.70;0.70;;;;;;;4.41;97.39;99415.00;4955212;29;20079;-83
2023/04/05 01:53:59;;;;;;;0.70;0.70;;;;;;;4.39;97.73;99416.22;4921969;29;20059;-82
2023/04/05 01:56:26;;;;;;;0.70;0.70;;;;;;;4.40;98.14;99421.34;4921532;28;20396;-83
2023/04/05 01:58:53;;;;;;;0.60;0.60;;;;;;;4.40;98.13;99420.53;4925392;28;20129;-83
2023/04/05 02:01:20;;;;;;;0.70;0.70;;;;;;;4.33;98.02;99428.50;4960769;28;20043;-83
2023/04/05 02:03:48;;;;;;;0.70;0.70;;;;;;;4.27;98.41;99438.09;4959479;28;20061;-83
2023/04/05 02:06:15;;;;;;;0.60;0.60;;;;;;;4.21;98.39;99432.72;4952363;29;20062;-83
2023/04/05 02:08:42;;;;;;;0.60;0.60;;;;;;;4.13;98.48;99436.38;4954484;28;20110;-83
2023/04/05 02:11:10;;;;;;;0.70;0.70;;;;;;;4.05;99.04;99426.63;4954796;29;20151;-83
2023/04/05 02:13:37;;;;;;;0.70;0.70;;;;;;;4.05;99.28;99431.13;4956299;28;20127;-83
2023/04/05 02:16:04;;;;;;;0.60;0.60;;;;;;;4.08;99.55;99444.13;4959560;29;20061;-84
2023/04/05 02:18:32;;;;;;;0.70;0.70;;;;;;;4.07;99.51;99435.25;4941995;29;20518;-84
2023/04/05 02:21:07;;;;;;;0.70;0.70;;;;;;;4.09;99.43;99435.09;4958090;29;20110;-83
2023/04/05 02:23:36;;;;;;;0.70;0.70;;;;;;;4.09;99.64;99437.75;4955899;29;20046;-84
2023/04/05 02:26:03;;;;;;;0.70;0.70;;;;;;;4.16;99.73;99441.31;4954523;29;20053;-82
2023/04/05 02:28:30;;;;;;;0.70;0.70;;;;;;;4.15;99.75;99449.50;4954031;29;20054;-83
2023/04/05 02:30:57;;;;;;;0.60;0.60;;;;;;;4.12;99.63;99446.19;4954171;29;20055;-82
2023/04/05 02:33:24;;;;;;;0.70;0.70;;;;;;;4.16;99.81;99445.84;4953809;29;20051;-82
2023/04/05 02:35:52;;;;;;;0.70;0.70;;;;;;;4.12;99.70;99448.88;4954272;29;20051;-83
2023/04/05 02:38:20;;;;;;;0.63;0.63;;;;;;;4.09;100.00;99453.78;4936707;29;20143;-84
2023/04/05 02:40:48;;;;;;;0.70;0.70;;;;;;;4.01;100.00;99456.59;4936866;29;20051;-83
2023/04/05 02:43:15;;;;;;;0.60;0.60;;;;;;;4.00;100.00;99454.91;4953635;29;20082;-83
2023/04/05 02:45:42;;;;;;;0.70;0.70;;;;;;;4.03;100.00;99454.56;4936592;29;20106;-83
2023/04/05 02:48:13;;;;;;;0.70;0.70;;;;;;;4.05;100.00;99457.84;4953738;29;20154;-84
2023/04/05 02:50:40;;;;;;;0.60;0.60;;;;;;;4.01;100.00;99452.06;4936516;29;20047;-82
2023/04/05 02:53:08;;;;;;;0.70;0.70;;;;;;;4.05;100.00;99457.84;4920716;29;20047;-84
2023/04/05 02:55:41;;;;;;;0.60;0.60;;;;;;;4.08;100.00;99465.50;4936625;29;20055;-83
2023/04/05 02:58:08;;;;;;;0.70;0.70;;;;;;;4.01;100.00;99461.94;4936294;29;20090;-83
2023/04/05 03:00:40;;;;;;;0.70;0.70;;;;;;;3.95;100.00;99462.66;4936495;29;20102;-83
2023/04/05 03:03:08;;;;;;;0.70;0.70;;;;;;;3.95;100.00;99465.34;4920463;29;20075;-84
2023/04/05 03:05:42;;;;;;;0.70;0.70;;;;;;;3.99;100.00;99471.97;4936396;29;20130;-82
2023/04/05 03:08:18;;;;;;;0.70;0.70;;;;;;;3.98;100.00;99467.66;4901346;29;20142;-84
2023/04/05 03:10:56;;;;;;;0.70;0.70;;;;;;;3.99;100.00;99471.97;4931375;29;20455;-84
2023/04/05 03:13:25;;;;;;;0.70;0.70;;;;;;;3.99;100.00;99475.47;4898365;29;20063;-85
2023/04/05 03:15:54;;;;;;;0.60;0.60;;;;;;;4.07;100.00;99478.00;4898299;29;20071;-84
2023/04/05 03:18:28;;;;;;;0.70;0.70;;;;;;;3.97;100.00;99458.78;4913813;29;20150;-84
2023/04/05 03:21:03;;;;;;;0.70;0.70;;;;;;;4.09;100.00;99473.28;4913998;29;20052;-84
2023/04/05 03:23:35;;;;;;;0.60;0.60;;;;;;;4.11;100.00;99468.59;4914113;29;20048;-84
2023/04/05 03:26:03;;;;;;;0.70;0.70;;;;;;;4.22;100.00;99480.59;4903115;29;20480;-83
2023/04/05 03:28:35;;;;;;;0.80;0.80;;;;;;;4.33;100.00;99479.28;4922735;29;20058;-83
2023/04/05 03:31:05;;;;;;;0.70;0.70;;;;;;;4.26;99.68;99471.19;4904784;29;20072;-84
2023/04/05 03:33:33;;;;;;;0.70;0.70;;;;;;;4.39;100.00;99478.50;4906339;29;20051;-83
2023/04/05 03:36:01;;;;;;;0.70;0.70;;;;;;;4.42;99.61;99490.66;4893199;29;20122;-84
2023/04/05 03:38:32;;;;;;;0.70;0.70;;;;;;;4.42;99.23;99490.66;4911500;29;20128;-84
2023/04/05 03:41:26;;;;;;;0.60;0.60;;;;;;;4.44;99.16;99486.78;4920533;29;20087;-88
2023/04/05 03:43:54;;;;;;;0.60;0.60;;;;;;;4.51;98.65;99494.84;4884201;29;20419;-83
2023/04/05 03:46:22;;;;;;;0.70;0.70;;;;;;;4.56;98.35;99498.59;4966914;23;20561;-84
2023/04/05 03:48:49;;;;;;;0.70;0.70;;;;;;;4.58;97.97;99485.00;4916376;29;20056;-87
2023/04/05 03:51:17;;;;;;;0.70;0.70;;;;;;;4.66;97.65;99492.91;4897157;29;20074;-86
2023/04/05 03:53:50;;;;;;;0.75;0.75;;;;;;;4.70;97.28;99494.16;4913666;29;20111;-83
2023/04/05 03:56:17;;;;;;;0.60;0.60;;;;;;;4.77;97.08;99487.03;4896826;29;20052;-86
2023/04/05 03:58:47;;;;;;;0.70;0.70;;;;;;;4.80;96.72;99491.16;4570950;29;9999658;-82
2023/04/05 04:01:18;;;;;;;0.80;0.80;;;;;;;4.88;96.47;99490.16;4902931;29;20094;-83
2023/04/05 04:03:45;;;;;;;0.70;0.70;;;;;;;4.98;95.77;99501.34;4904055;29;20047;-82
2023/04/05 04:06:17;;;;;;;0.70;0.70;;;;;;;5.05;95.19;99509.44;4909392;29;20582;-83
2023/04/05 04:08:48;;;;;;;0.70;0.70;;;;;;;5.11;95.07;99506.78;4899774;29;20460;-82
2023/04/05 04:11:15;;;;;;;0.70;0.70;;;;;;;5.19;94.75;99500.44;4896550;29;20139;-83
2023/04/05 04:13:45;;;;;;;0.70;0.70;;;;;;;5.33;93.93;99515.56;4925707;29;20106;-82
2023/04/05 04:16:23;;;;;;;0.70;0.70;;;;;;;5.44;93.27;99516.84;4918624;29;20060;-84
2023/04/05 04:19:08;;;;;;;0.70;0.70;;;;;;;5.53;92.55;99518.31;4912632;29;20511;-83
2023/04/05 04:21:54;;;;;;;0.80;0.80;;;;;;;5.59;91.83;99509.47;4918302;29;20056;-82
2023/04/05 04:24:33;;;;;;;0.70;0.70;;;;;;;5.66;91.24;99525.59;4901795;29;20047;-82
2023/04/05 04:27:20;;;;;;;0.70;0.70;;;;;;;5.73;90.61;99523.78;4913298;29;20063;-83
2023/04/05 04:30:09;;;;;;;0.70;0.70;;;;;;;5.84;89.92;99515.16;4928605;29;20696;-83
2023/04/05 04:33:16;;;;;;;;;;;;;;;5.95;89.09;99519.16;4920247;29;20134;-84
2023/04/05 04:35:38;;;;;;;0.60;0.60;;;;;;;6.01;88.55;99514.81;4926012;29;20352;-83
2023/04/05 04:38:25;;;;;;;0.70;0.70;;;;;;;6.05;88.05;99514.22;4920380;29;20055;-82
2023/04/05 04:41:25;;;;;;;0.70;0.70;;;;;;;6.13;87.81;99518.56;4910530;23;20127;-84
2023/04/05 04:44:30;;;;;;;0.60;0.60;;;;;;;6.18;87.04;99524.16;4843241;29;20230;-84
2023/04/05 04:47:20;;;;;;;0.70;0.70;;;;;;;6.24;86.45;99530.53;4852650;29;20061;-84
2023/04/05 04:50:09;;;;;;;0.60;0.60;;;;;;;6.31;86.17;99530.56;4862339;29;20085;-81
2023/04/05 04:52:39;;;;;;;0.60;0.60;;;;;;;6.34;85.84;99527.47;4871078;29;20049;-82
2023/04/05 04:55:15;;;;;;;0.70;0.70;;;;;;;6.36;85.48;99536.97;4836823;29;20136;-82
2023/04/05 04:57:45;;;;;;;0.70;0.70;;;;;;;6.43;85.07;99534.25;4847330;29;20060;-84
2023/04/05 05:00:17;;;;;;;0.68;0.68;;;;;;;6.49;84.56;99538.81;4858608;29;20137;-85
2023/04/05 05:02:44;;;;;;;0.70;0.70;;;;;;;6.58;84.03;99547.47;4860985;29;20103;-83
2023/04/05 05:05:15;;;;;;;0.70;0.70;;;;;;;6.67;83.55;99538.22;4851290;29;20512;-84
2023/04/05 05:07:42;;;;;;;0.70;0.70;;;;;;;6.69;83.06;99542.34;4866975;29;20112;-83
2023/04/05 05:10:10;;;;;;;0.70;0.70;;;;;;;6.81;82.55;99544.41;4851399;29;20521;-81
2023/04/05 05:12:38;;;;;;;0.70;0.70;;;;;;;6.92;81.90;99541.91;4863377;29;20148;-84
2023/04/05 05:15:06;;;;;;;0.70;0.70;;;;;;;7.05;81.02;99540.25;4846723;29;20052;-83
2023/04/05 05:17:34;;;;;;;0.70;0.70;;;;;;;7.05;80.63;99546.44;4837132;29;20113;-82
2023/04/05 05:20:09;;;;;;;0.70;0.70;;;;;;;7.14;79.89;99553.25;4870789;29;20090;-83
2023/04/05 05:22:42;;;;;;;0.70;0.70;;;;;;;7.29;79.56;99555.72;4935606;29;20102;-81
2023/04/05 05:25:11;;;;;;;0.70;0.70;;;;;;;7.43;79.02;99561.06;4947626;29;20537;-83
2023/04/05 05:27:38;;;;;;;0.65;0.65;;;;;;;7.54;77.99;99552.34;4949429;29;20395;-82
2023/04/05 05:30:10;;;;;;;0.70;0.70;;;;;;;7.65;77.63;99551.69;4935108;29;20126;-83
2023/04/05 05:32:37;;;;;;;0.68;0.68;;;;;;;7.66;76.73;99558.69;4951771;29;20052;-82
2023/04/05 05:35:09;;;;;;;0.75;0.75;;;;;;;7.73;75.99;99556.00;4955146;29;20055;-83
2023/04/05 05:37:36;;;;;;;0.65;0.65;;;;;;;7.74;75.50;99547.72;4957183;29;20051;-84
2023/04/05 05:40:04;;;;;;;0.60;0.60;;;;;;;7.78;75.23;99557.00;4937865;29;20066;-83
2023/04/05 05:42:32;;;;;;;0.70;0.70;;;;;;;7.82;74.76;99552.03;4955030;29;20074;-83
2023/04/05 05:45:04;;;;;;;0.70;0.70;;;;;;;7.97;74.39;99559.81;4955395;29;20459;-83
2023/04/05 05:47:31;;;;;;;0.70;0.70;;;;;;;8.10;72.99;99554.41;4921906;29;20125;-83
2023/04/05 05:50:00;;;;;;;0.70;0.70;;;;;;;8.25;72.06;99560.31;4954755;29;20146;-83
2023/04/05 05:52:47;;;;;;;0.70;0.70;;;;;;;8.35;71.27;99572.44;4938081;29;20059;-85
2023/04/05 05:55:14;;;;;;;0.70;0.70;;;;;;;8.41;70.86;99561.69;4954338;29;20066;-83
2023/04/05 05:57:42;;;;;;;0.60;0.60;;;;;;;8.48;70.08;99561.63;4954676;29;20055;-83
2023/04/05 06:00:09;;;;;;;0.70;0.70;;;;;;;8.55;69.82;99564.28;4951385;29;20506;-82
2023/04/05 06:02:40;;;;;;;0.70;0.70;;;;;;;8.66;69.26;99564.41;4930782;29;20048;-84
2023/04/05 06:05:08;;;;;;;0.75;0.75;;;;;;;8.77;68.84;99567.44;4947574;29;20135;-82
2023/04/05 06:07:36;;;;;;;0.70;0.70;;;;;;;8.84;67.89;99565.53;4951111;29;20051;-82
2023/04/05 06:10:05;;;;;;;0.70;0.70;;;;;;;8.93;67.14;99566.06;4945729;29;20102;-82
2023/04/05 06:12:32;;;;;;;0.70;0.70;;;;;;;8.92;66.88;99561.75;4934830;29;20051;-83
2023/04/05 06:15:00;;;;;;;0.70;0.70;;;;;;;9.08;66.69;99575.44;4947250;29;20400;-82
2023/04/05 06:17:27;;;;;;;0.70;0.70;;;;;;;9.32;66.33;99578.34;4932887;29;20051;-82
2023/04/05 06:19:54;;;;;;;0.70;0.70;;;;;;;9.36;64.25;99578.72;4940991;29;21710;-83
2023/04/05 06:22:22;;;;;;;0.70;0.70;;;;;;;9.24;64.34;99581.31;4944230;29;20058;-81
2023/04/05 06:24:58;;;;;;;0.70;0.70;;;;;;;9.26;64.32;99580.03;4920181;29;20055;-81
2023/04/05 06:27:25;;;;;;;0.63;0.63;;;;;;;9.40;64.09;99585.31;4944409;29;20054;-83
2023/04/05 06:29:55;;;;;;;0.70;0.70;;;;;;;9.56;63.43;99584.72;4944641;29;20426;-83
2023/04/05 06:32:22;;;;;;;0.70;0.70;;;;;;;9.52;63.09;99584.38;4910573;29;20426;-83
2023/04/05 06:34:52;;;;;;;0.70;0.70;;;;;;;9.50;63.14;99591.84;4921850;29;20061;-82
2023/04/05 06:37:22;;;;;;;0.70;0.70;;;;;;;9.60;63.03;99590.50;4945679;29;20078;-84
2023/04/05 06:39:55;;;;;;;0.70;0.70;;;;;;;9.71;62.90;99592.44;4936905;29;20074;-83
2023/04/05 06:42:22;;;;;;;0.60;0.60;;;;;;;9.68;62.68;99595.59;4911477;29;20513;-82
2023/04/05 06:44:58;;;;;;;0.60;0.60;;;;;;;9.67;62.37;99591.22;4916932;29;20062;-83
2023/04/05 06:47:25;;;;;;;0.60;0.60;;;;;;;9.82;62.51;99590.88;4943602;29;20083;-82
2023/04/05 06:49:53;;;;;;;0.68;0.68;;;;;;;9.84;61.36;99594.97;4941952;29;20490;-85
2023/04/05 06:52:20;;;;;;;0.70;0.70;;;;;;;9.75;61.61;99596.34;4930223;29;20609;-84
2023/04/05 06:54:47;;;;;;;0.60;0.60;;;;;;;9.68;61.23;99587.50;4935331;29;20058;-84
2023/04/05 06:57:14;;;;;;;0.60;0.60;;;;;;;9.51;61.44;99590.78;4924864;29;20056;-83
2023/04/05 06:59:41;;;;;;;0.60;0.60;;;;;;;9.62;61.55;99591.09;4955022;29;20081;-84
2023/04/05 07:02:08;;;;;;;0.60;0.60;;;;;;;9.70;61.41;99597.03;4936092;29;20471;-83
2023/04/05 07:04:35;;;;;;;0.70;0.70;;;;;;;9.79;61.59;99594.84;4953535;29;20046;-84
2023/04/05 07:07:03;;;;;;;0.70;0.70;;;;;;;10.02;60.83;99598.72;4953614;29;20079;-84
2023/04/05 07:09:49;;;;;;;0.70;0.70;;;;;;;10.30;60.36;99592.78;4929356;29;20056;-84
2023/04/05 07:12:16;;;;;;;0.68;0.68;;;;;;;10.45;60.19;99595.91;4934266;29;20467;-83
2023/04/05 07:14:46;;;;;;;0.70;0.70;;;;;;;10.49;59.14;99596.28;4927695;29;20059;-84
2023/04/05 07:17:13;;;;;;;0.60;0.60;;;;;;;10.56;59.05;99595.13;4953019;29;20121;-85
2023/04/05 07:19:40;;;;;;;0.70;0.70;;;;;;;10.81;58.46;99592.25;4953006;29;20054;-83
2023/04/05 07:22:08;;;;;;;0.60;0.60;;;;;;;11.00;57.97;99594.88;4935984;29;20054;-84
2023/04/05 07:24:35;;;;;;;0.70;0.70;;;;;;;11.05;57.45;99589.59;4936167;29;20051;-84
2023/04/05 07:27:02;;;;;;;0.70;0.70;;;;;;;11.11;56.88;99582.44;4953249;29;20063;-84
2023/04/05 07:29:37;;;;;;;0.70;0.70;;;;;;;11.32;57.04;99591.81;4953526;29;20047;-84
2023/04/05 07:32:04;;;;;;;0.80;0.80;;;;;;;11.45;56.38;99591.59;4952739;29;20047;-84
2023/04/05 07:34:31;;;;;;;0.70;0.70;;;;;;;11.62;56.34;99592.53;4935879;29;20059;-83
2023/04/05 07:36:58;;;;;;;0.70;0.70;;;;;;;11.85;55.74;99596.22;4953446;29;20047;-84
2023/04/05 07:39:26;;;;;;;0.68;0.68;;;;;;;12.04;54.70;99608.56;4935777;29;20047;-84
2023/04/05 07:41:53;;;;;;;0.60;0.60;;;;;;;11.95;54.72;99601.06;4935934;29;20442;-85
2023/04/05 07:47:06;;;;;;;0.70;0.70;;;;;;;11.81;55.32;99584.28;4951038;29;20164;-86
2023/04/05 07:49:36;;;;;;;0.70;0.70;;;;;;;11.96;54.62;99589.22;4941324;29;20055;-86
2023/04/05 07:52:05;;;;;;;0.80;0.80;;;;;;;12.16;54.37;99596.91;4940063;29;20406;-84
2023/04/05 07:54:32;;;;;;;0.70;0.70;;;;;;;12.38;53.25;99581.63;4920680;29;20047;-84
2023/04/05 07:57:00;;;;;;;0.77;0.77;;;;;;;12.54;52.60;99594.41;4940436;29;20097;-85
2023/04/05 07:59:27;;;;;;;0.70;0.70;;;;;;;12.62;52.31;99590.47;4933141;29;20122;-85
2023/04/05 08:01:54;;;;;;;0.70;0.70;;;;;;;12.59;51.87;99596.38;4933744;29;20499;-85
2023/04/05 08:04:27;;;;;;;0.65;0.65;;;;;;;12.86;51.44;99584.91;4939344;29;20681;-84
2023/04/05 08:06:55;;;;;;;0.70;0.70;;;;;;;13.24;50.88;99611.28;4951932;29;20233;-85
2023/04/05 08:09:22;;;;;;;0.70;0.70;;;;;;;13.48;49.74;99609.25;4931518;29;20060;-84
2023/04/05 08:11:50;;;;;;;0.60;0.60;;;;;;;13.59;49.08;99599.34;4949731;29;20067;-83
2023/04/05 08:14:16;;;;;;;0.80;0.80;;;;;;;13.56;48.47;99587.13;4916406;29;20064;-85
2023/04/05 08:16:44;;;;;;;0.70;0.70;;;;;;;13.39;48.73;99594.44;4933041;29;20044;-86
2023/04/05 08:19:11;;;;;;;0.70;0.70;;;;;;;13.81;48.13;99602.91;4915650;29;20056;-84
2023/04/05 08:21:41;;;;;;;0.63;0.63;;;;;;;13.86;48.03;99602.16;4925648;29;20047;-85
2023/04/05 08:24:08;;;;;;;0.70;0.70;;;;;;;13.90;47.72;99594.34;4915947;29;20052;-84
2023/04/05 08:26:35;;;;;;;0.70;0.70;;;;;;;14.00;48.04;99599.88;4938234;29;20511;-83
2023/04/05 08:29:02;;;;;;;0.80;0.80;;;;;;;14.31;46.95;99618.19;4904518;29;20099;-83
2023/04/05 08:34:16;;;;;;;0.70;0.70;;;;;;;14.77;46.04;99604.31;4932678;29;20067;-84
2023/04/05 08:36:46;;;;;;;0.70;0.70;;;;;;;15.12;45.18;99603.78;4932660;29;20502;-83
2023/04/05 08:39:14;;;;;;;0.73;0.73;;;;;;;15.36;44.77;99592.53;4945064;29;20051;-83
2023/04/05 08:42:10;;;;;;;0.70;0.70;;;;;;;15.95;43.77;99603.25;4951864;29;20059;-84
2023/04/05 08:44:39;;;;;;;0.77;0.77;;;;;;;16.25;42.45;99588.09;4951788;29;20047;-83
2023/04/05 08:47:22;;;;;;;0.70;0.70;;;;;;;16.52;42.00;99595.28;4932613;29;20063;-84
2023/04/05 08:49:49;;;;;;;0.70;0.70;;;;;;;17.15;41.06;99590.44;4934746;29;20138;-83
2023/04/05 08:52:17;;;;;;;0.60;0.60;;;;;;;16.77;41.04;99597.22;4952113;29;20055;-84
2023/04/05 08:54:44;;;;;;;0.70;0.70;;;;;;;16.42;41.80;99602.31;4951854;29;20098;-83
2023/04/05 08:57:15;;;;;;;0.70;0.70;;;;;;;16.83;40.81;99601.63;4951592;29;20055;-83
2023/04/05 08:59:48;;;;;;;0.70;0.70;;;;;;;17.09;40.60;99614.19;4952119;29;20597;-83
2023/04/05 09:02:18;;;;;;;0.70;0.70;;;;;;;17.33;39.74;99606.25;4952183;29;20055;-83
2023/04/05 09:04:46;;;;;;;0.60;0.60;;;;;;;17.47;39.38;99600.22;4952534;29;20047;-83
2023/04/05 09:07:14;;;;;;;0.70;0.70;;;;;;;17.81;39.44;99594.19;4918222;29;20059;-83
2023/04/05 09:09:45;;;;;;;0.70;0.70;;;;;;;17.81;39.21;99586.81;4946915;28;20055;-83
2023/04/05 09:12:13;;;;;;;0.70;0.70;;;;;;;17.74;38.46;99600.72;4936477;29;20384;-84
2023/04/05 09:14:42;;;;;;;0.70;0.70;;;;;;;17.59;38.60;99603.47;4941163;29;20051;-84
2023/04/05 09:17:12;;;;;;;0.70;0.70;;;;;;;17.45;39.16;99608.69;4932149;29;20524;-84
2023/04/05 09:19:45;;;;;;;0.70;0.70;;;;;;;17.42;39.40;99602.97;4936951;29;20153;-83
2023/04/05 09:22:17;;;;;;;0.70;0.70;;;;;;;17.51;38.90;99593.13;4939007;29;20058;-84
2023/04/05 09:24:48;;;;;;;0.60;0.60;;;;;;;17.80;38.32;99584.34;4938112;29;20055;-83
2023/04/05 09:27:22;;;;;;;0.70;0.70;;;;;;;18.08;37.99;99589.16;4937664;29;20049;-83
2023/04/05 09:29:54;;;;;;;0.70;0.70;;;;;;;18.60;36.94;99585.03;4921550;29;20055;-83
2023/04/05 09:32:28;;;;;;;0.70;0.70;;;;;;;18.90;36.35;99585.16;4937555;29;20098;-82
2023/04/05 09:34:59;;;;;;;0.70;0.70;;;;;;;18.79;36.42;99587.97;4937787;29;20110;-84
2023/04/05 09:37:54;;;;;;;0.63;0.63;;;;;;;18.63;37.06;99600.06;4938089;29;20051;-83
2023/04/05 09:40:46;;;;;;;0.60;0.60;;;;;;;19.05;36.69;99591.31;4921615;29;20869;-83
2023/04/05 09:43:36;;;;;;;0.70;0.70;;;;;;;19.20;35.88;99578.63;4937115;29;20462;-83
2023/04/05 09:46:03;;;;;;;0.65;0.65;;;;;;;19.40;36.24;99581.16;4954775;29;20748;-84
2023/04/05 09:48:48;;;;;;;0.70;0.70;;;;;;;19.80;35.82;99591.97;4954599;29;20110;-82
2023/04/05 09:51:15;;;;;;;0.70;0.70;;;;;;;20.32;34.22;99588.31;4939355;29;20474;-83
2023/04/05 09:54:03;;;;;;;0.70;0.70;;;;;;;20.08;33.92;99593.84;4960438;29;20138;-84
2023/04/05 09:56:33;;;;;;;0.60;0.60;;;;;;;19.96;34.37;99600.84;4954702;29;20122;-84
2023/04/05 09:59:10;;;;;;;0.60;0.60;;;;;;;20.07;34.62;99597.69;4954493;29;20142;-82
2023/04/05 10:01:42;;;;;;;0.60;0.60;;;;;;;20.42;33.70;99594.78;4956710;29;20055;-85
2023/04/05 10:04:10;;;;;;;0.60;0.60;;;;;;;20.36;33.85;99585.81;4960014;29;20047;-84
2023/04/05 10:06:42;;;;;;;0.70;0.70;;;;;;;20.38;33.69;99599.22;4937333;29;20466;-82
2023/04/05 10:09:10;;;;;;;0.60;0.60;;;;;;;20.22;33.96;99593.94;4933304;29;20107;-84
2023/04/05 10:11:38;;;;;;;0.70;0.70;;;;;;;19.86;33.96;99597.13;4948562;29;20501;-84
2023/04/05 10:14:08;;;;;;;0.50;0.50;;;;;;;19.68;34.88;99586.94;4951024;29;20075;-85
2023/04/05 10:17:04;;;;;;;0.70;0.70;;;;;;;19.64;35.24;99580.34;4599772;28;10000299;-83
2023/04/05 10:20:05;;;;;;;0.60;0.60;;;;;;;20.65;33.67;99593.09;4939444;29;20047;-83
2023/04/05 10:22:50;;;;;;;0.70;0.70;;;;;;;20.67;33.34;99594.44;4934358;29;20166;-83
2023/04/05 10:25:32;;;;;;;0.70;0.70;;;;;;;20.76;33.19;99595.41;4928854;29;20055;-81
2023/04/05 10:28:10;;;;;;;0.60;0.60;;;;;;;21.13;33.01;99582.72;4921441;29;20059;-83
2023/04/05 10:30:44;;;;;;;0.60;0.60;;;;;;;21.03;32.79;99591.13;4948954;28;20050;-85
2023/04/05 10:33:44;;;;;;;0.60;0.60;;;;;;;20.92;32.98;99590.50;4969722;28;20042;-85
2023/04/05 10:36:38;;;;;;;0.60;0.60;;;;;;;21.10;33.19;99586.09;4951161;28;20047;-84
2023/04/05 10:39:16;;;;;;;0.60;0.60;;;;;;;21.53;33.04;99585.91;4923400;29;20050;-85
2023/04/05 10:41:49;;;;;;;0.60;0.60;;;;;;;21.83;31.87;99590.00;4933406;29;20055;-85
2023/04/05 10:44:16;;;;;;;0.50;0.50;;;;;;;21.87;31.81;99568.22;4933603;29;20113;-83
2023/04/05 10:46:53;;;;;;;0.60;0.60;;;;;;;22.00;31.94;99586.66;4939932;29;20507;-85
2023/04/05 10:49:36;;;;;;;0.60;0.60;;;;;;;22.15;31.75;99584.69;4945817;29;20712;-86
2023/04/05 10:52:03;;;;;;;0.60;0.60;;;;;;;22.22;31.50;99579.63;4933198;29;20122;-84
2023/04/05 10:54:32;;;;;;;0.60;0.60;;;;;;;22.02;32.20;99581.63;4923802;29;20055;-84
2023/04/05 10:57:07;;;;;;;0.50;0.50;;;;;;;21.95;31.99;99577.66;4937234;29;20103;-85
2023/04/05 10:59:41;;;;;;;0.60;0.60;;;;;;;21.73;32.21;99594.88;4937832;29;20062;-85
2023/04/05 11:02:08;;;;;;;0.50;0.50;;;;;;;21.99;31.95;99582.25;4899048;29;20043;-82
2023/04/05 11:04:38;;;;;;;0.50;0.50;;;;;;;22.07;31.36;99591.72;4898604;29;20051;-84
2023/04/05 11:07:18;;;;;;;0.60;0.60;;;;;;;22.05;31.86;99583.78;4942387;29;20047;-84
2023/04/05 11:09:59;;;;;;;0.60;0.60;;;;;;;22.49;31.34;99573.25;4928905;29;20051;-85
2023/04/05 11:12:45;;;;;;;0.60;0.60;;;;;;;22.32;31.32;99571.16;4930424;29;20074;-85
2023/04/05 11:15:27;;;;;;;0.60;0.60;;;;;;;22.32;31.59;99579.41;4950126;29;20054;-83
2023/04/05 11:18:30;;;;;;;0.60;0.60;;;;;;;22.46;30.89;99582.94;4933320;29;20145;-83
2023/04/05 11:21:06;;;;;;;0.60;0.60;;;;;;;22.29;31.34;99569.03;4898175;29;20063;-87
2023/04/05 11:24:05;;;;;;;0.70;0.70;;;;;;;22.71;31.20;99566.94;4897171;29;20697;-84
2023/04/05 11:26:54;;;;;;;0.60;0.60;;;;;;;22.70;30.85;99568.91;4888622;29;20053;-82
2023/04/05 11:29:48;;;;;;;0.50;0.50;;;;;;;23.14;30.42;99560.97;4888889;29;20459;-85
2023/04/05 11:32:18;;;;;;;0.60;0.60;;;;;;;23.24;29.80;99557.94;4884601;29;20053;-85
2023/04/05 11:35:01;;;;;;;0.50;0.50;;;;;;;23.06;30.05;99548.78;4902443;29;20115;-84
2023/04/05 11:40:46;;;;;;;0.60;0.60;;;;;;;23.24;29.64;99549.69;4906016;29;20047;-85
2023/04/05 11:43:13;;;;;;;0.60;0.60;;;;;;;23.85;29.21;99551.94;4898843;29;20584;-85
2023/04/05 11:45:47;;;;;;;0.50;0.50;;;;;;;23.62;28.99;99548.41;4895784;29;20139;-83
2023/04/05 11:48:14;;;;;;;0.60;0.60;;;;;;;23.54;29.53;99539.00;4898860;29;20056;-86
2023/04/05 11:50:41;;;;;;;0.57;0.57;;;;;;;23.76;29.04;99549.16;4913135;29;20506;-84
2023/04/05 11:56:08;;;;;;;0.57;0.57;;;;;;;23.22;29.15;99549.22;4902356;29;20055;-84
2023/04/05 11:58:36;;;;;;;0.50;0.50;;;;;;;23.41;29.37;99546.22;4935612;29;20494;-85
2023/04/05 12:01:08;;;;;;;0.60;0.60;;;;;;;23.41;29.28;99532.47;4962878;29;20239;-85
2023/04/05 12:03:40;;;;;;;0.50;0.50;;;;;;;23.73;28.92;99533.28;4954419;29;20193;-84
2023/04/05 12:06:26;;;;;;;0.50;0.50;;;;;;;23.58;29.35;99537.22;4935456;29;20481;-86
2023/04/05 12:08:54;;;;;;;0.50;0.50;;;;;;;23.72;29.03;99542.63;4951177;29;20133;-86
2023/04/05 12:11:24;;;;;;;0.50;0.50;;;;;;;23.77;28.76;99542.50;4933089;29;20147;-86
2023/04/05 12:14:01;;;;;;;0.50;0.50;;;;;;;24.05;28.90;99540.31;4940740;29;20438;-85